createdAt,value
2019-04-30T00:01:16.136Z,11.73
2019-04-30T00:05:15.122Z,11.23
2019-04-30T00:09:18.947Z,11.30
2019-04-30T00:13:21.158Z,10.70
2019-04-30T00:17:25.549Z,10.80
2019-04-30T00:21:27.785Z,11.13
2019-04-30T00:25:30.159Z,11.37
2019-04-30T00:29:32.858Z,10.07
2019-04-30T00:33:36.894Z,11.23
2019-04-30T00:37:39.513Z,9.47
2019-04-30T00:41:44.087Z,9.33
2019-04-30T00:45:47.537Z,10.07
2019-04-30T00:49:52.097Z,9.40
2019-04-30T00:53:55.656Z,11.50
2019-04-30T00:57:57.882Z,11.13
2019-04-30T01:02:00.610Z,11.50
2019-04-30T01:06:03.136Z,10.27
2019-04-30T01:10:05.684Z,10.43
2019-04-30T01:14:09.755Z,10.13
2019-04-30T01:18:12.383Z,9.30
2019-04-30T01:22:21.229Z,9.57
2019-04-30T01:26:22.885Z,6.80
2019-04-30T01:30:22.999Z,7.57
2019-04-30T01:34:25.615Z,5.20
2019-04-30T01:38:28.696Z,4.83
2019-04-30T01:42:31.453Z,5.37
2019-04-30T01:46:33.831Z,4.13
2019-04-30T01:50:38.629Z,4.67
2019-04-30T01:54:40.427Z,3.73
2019-04-30T01:58:43.138Z,3.60
2019-04-30T02:02:46.087Z,2.57
2019-04-30T02:06:49.326Z,2.50
2019-04-30T02:10:51.942Z,2.37
2019-04-30T02:14:54.603Z,2.50
2019-04-30T02:18:57.022Z,2.00
2019-04-30T02:22:59.534Z,2.27
2019-04-30T02:27:01.925Z,1.77
2019-04-30T02:31:04.587Z,2.23
2019-04-30T02:35:09.408Z,1.53
2019-04-30T02:39:11.331Z,1.90
2019-04-30T02:43:13.782Z,1.73
2019-04-30T02:47:16.225Z,1.70
2019-04-30T02:51:22.858Z,1.50
2019-04-30T02:55:24.779Z,1.60
2019-04-30T02:59:29.884Z,1.60
2019-04-30T03:03:31.595Z,1.53
2019-04-30T03:07:33.911Z,1.60
2019-04-30T03:11:36.523Z,1.23
2019-04-30T03:15:39.442Z,1.10
2019-04-30T03:19:42.230Z,1.20
2019-04-30T03:23:44.694Z,1.17
2019-04-30T03:27:49.691Z,0.87
2019-04-30T03:31:52.440Z,1.33
2019-04-30T03:35:55.325Z,1.07
2019-04-30T03:40:00.501Z,0.90
2019-04-30T03:44:17.150Z,1.07
2019-04-30T03:48:05.764Z,1.07
2019-04-30T03:52:10.081Z,1.07
2019-04-30T03:56:12.425Z,1.07
2019-04-30T04:00:14.838Z,0.93
2019-04-30T04:04:19.869Z,1.00
2019-04-30T04:08:21.541Z,1.33
2019-04-30T04:12:24.289Z,1.17
2019-04-30T04:16:31.770Z,1.13
2019-04-30T04:20:30.998Z,1.10
2019-04-30T04:24:33.888Z,1.20
2019-04-30T04:28:36.337Z,2.13
2019-04-30T04:32:40.641Z,2.40
2019-04-30T04:36:43.378Z,1.57
2019-04-30T04:40:46.687Z,1.73
2019-04-30T04:44:50.256Z,1.90
2019-04-30T04:48:53.272Z,1.70
2019-04-30T04:52:55.971Z,2.17
2019-04-30T04:57:13.157Z,2.30
2019-04-30T05:01:03.002Z,2.00
2019-04-30T05:05:05.758Z,2.43
2019-04-30T05:09:09.765Z,2.30
2019-04-30T05:13:13.969Z,2.40
2019-04-30T05:17:16.587Z,2.40
2019-04-30T05:21:19.515Z,2.27
2019-04-30T05:25:22.217Z,2.60
2019-04-30T05:29:24.748Z,2.73
2019-04-30T05:33:28.619Z,2.93
2019-04-30T05:37:31.461Z,2.90
2019-04-30T05:41:33.724Z,3.20
2019-04-30T05:45:36.642Z,2.97
2019-04-30T05:49:39.031Z,2.90
2019-04-30T05:53:41.642Z,2.73
2019-04-30T05:57:53.905Z,2.80
2019-04-30T06:01:50.692Z,2.83
2019-04-30T06:05:52.159Z,3.03
2019-04-30T06:09:54.712Z,3.50
2019-04-30T06:13:58.846Z,3.20
2019-04-30T06:18:10.398Z,3.60
2019-04-30T06:22:07.539Z,3.10
2019-04-30T06:26:12.269Z,2.97
2019-04-30T06:30:12.983Z,3.23
2019-04-30T06:34:15.445Z,3.50
2019-04-30T06:38:18.514Z,3.43
2019-04-30T06:42:21.317Z,4.00
2019-04-30T06:46:23.843Z,4.00
2019-04-30T06:50:26.350Z,3.93
2019-04-30T06:54:28.763Z,3.43
2019-04-30T07:02:31.786Z,3.50
2019-04-30T07:06:37.098Z,3.97
2019-04-30T07:10:38.067Z,3.70
2019-04-30T07:14:41.944Z,4.20
2019-04-30T07:18:44.395Z,3.30
2019-04-30T07:22:52.414Z,3.67
2019-04-30T07:26:54.836Z,4.20
2019-04-30T07:31:07.612Z,4.53
2019-04-30T07:34:59.444Z,4.47
2019-04-30T07:39:02.262Z,4.10
2019-04-30T07:43:04.649Z,4.73
2019-04-30T07:47:09.520Z,3.57
2019-04-30T07:51:11.529Z,4.80
2019-04-30T07:55:14.153Z,4.10
2019-04-30T07:59:16.689Z,4.50
2019-04-30T08:03:20.659Z,4.93
2019-04-30T08:07:23.130Z,4.67
2019-04-30T08:11:26.549Z,3.83
2019-04-30T08:15:29.592Z,4.03
2019-04-30T08:19:32.178Z,3.70
2019-04-30T08:23:37.123Z,4.20
2019-04-30T08:27:39.249Z,4.60
2019-04-30T08:31:42.018Z,4.50
2019-04-30T08:35:44.517Z,3.97
2019-04-30T08:39:47.035Z,4.53
2019-04-30T08:43:49.791Z,4.33
2019-04-30T08:47:52.491Z,4.20
2019-04-30T08:51:54.928Z,4.70
2019-04-30T08:55:58.999Z,4.37
2019-04-30T09:00:01.447Z,4.87
2019-04-30T09:04:03.920Z,4.70
2019-04-30T09:08:09.511Z,9.13
2019-04-30T09:12:11.389Z,5.27
2019-04-30T09:16:14.051Z,5.40
2019-04-30T09:20:17.098Z,5.50
2019-04-30T09:24:19.513Z,5.07
2019-04-30T09:28:21.959Z,4.77
2019-04-30T09:32:24.355Z,5.17
2019-04-30T09:36:26.636Z,5.60
2019-04-30T09:40:32.192Z,4.40
2019-04-30T09:44:33.288Z,4.77
2019-04-30T09:48:35.874Z,4.80
2019-04-30T09:52:39.584Z,5.77
2019-04-30T09:56:42.547Z,4.80
2019-04-30T10:00:44.771Z,5.20
2019-04-30T10:04:47.748Z,4.97
2019-04-30T10:08:51.344Z,5.30
2019-04-30T10:12:54.070Z,4.70
2019-04-30T10:16:56.406Z,5.73
2019-04-30T10:21:00.819Z,4.93
2019-04-30T10:25:02.640Z,4.53
2019-04-30T10:29:05.302Z,5.23
2019-04-30T10:33:09.816Z,5.00
2019-04-30T10:37:11.660Z,5.47
2019-04-30T10:41:14.147Z,4.97
2019-04-30T10:45:18.499Z,5.00
2019-04-30T10:49:20.438Z,5.40
2019-04-30T10:53:23.558Z,5.10
2019-04-30T10:57:25.907Z,5.30
2019-04-30T11:01:29.197Z,5.27
2019-04-30T11:05:31.700Z,4.97
2019-04-30T11:09:34.112Z,4.93
2019-04-30T11:13:36.498Z,5.07
2019-04-30T11:17:39.639Z,7.47
2019-04-30T11:21:42.362Z,6.23
2019-04-30T11:25:45.522Z,5.70
2019-04-30T11:29:49.454Z,6.53
2019-04-30T11:33:52.202Z,6.53
2019-04-30T11:37:54.650Z,5.70
2019-04-30T11:41:57.162Z,7.10
2019-04-30T11:46:00.317Z,5.30
2019-04-30T11:50:02.960Z,6.73
2019-04-30T11:54:05.336Z,6.67
2019-04-30T11:58:20.650Z,6.57
2019-04-30T12:02:11.636Z,8.37
2019-04-30T12:06:14.250Z,7.53
2019-04-30T12:10:16.809Z,7.13
2019-04-30T12:14:20.289Z,6.70
2019-04-30T12:18:22.937Z,6.13
2019-04-30T12:22:25.393Z,7.47
2019-04-30T12:26:28.885Z,7.03
2019-04-30T12:30:31.408Z,6.77
2019-04-30T12:34:34.022Z,6.77
2019-04-30T12:38:36.939Z,10.37
2019-04-30T12:42:39.298Z,9.23
2019-04-30T12:46:41.830Z,8.97
2019-04-30T12:50:44.419Z,9.17
2019-04-30T12:54:46.872Z,8.27
2019-04-30T12:58:49.271Z,8.30
2019-04-30T13:02:51.954Z,7.50
2019-04-30T13:06:54.976Z,8.70
2019-04-30T13:10:58.266Z,9.63
2019-04-30T13:15:01.166Z,8.20
2019-04-30T13:19:03.827Z,10.37
2019-04-30T13:23:06.497Z,10.07
2019-04-30T13:27:09.424Z,10.73
2019-04-30T13:31:11.914Z,10.93
2019-04-30T13:35:14.707Z,15.73
2019-04-30T13:39:17.006Z,12.80
2019-04-30T13:43:19.475Z,12.47
2019-04-30T13:47:21.850Z,13.13
2019-04-30T13:51:24.397Z,13.50
2019-04-30T13:55:29.189Z,14.53
2019-04-30T13:59:31.109Z,12.70
2019-04-30T14:03:33.721Z,12.70
2019-04-30T14:07:36.128Z,12.80
2019-04-30T14:11:38.481Z,12.87
2019-04-30T14:15:41.208Z,14.07
2019-04-30T14:19:43.765Z,13.77
2019-04-30T14:23:46.439Z,14.83
2019-04-30T14:27:52.403Z,14.50
2019-04-30T14:31:52.883Z,14.87
2019-04-30T14:35:55.645Z,16.17
2019-04-30T14:39:58.413Z,14.47
2019-04-30T14:44:01.983Z,14.73
2019-04-30T14:48:05.409Z,15.10
2019-04-30T14:52:09.353Z,14.87
2019-04-30T14:56:12.000Z,16.60
2019-04-30T15:00:14.338Z,15.40
2019-04-30T15:04:20.352Z,16.53
2019-04-30T15:08:20.701Z,17.80
2019-04-30T15:12:23.298Z,16.80
2019-04-30T15:16:25.725Z,17.20
2019-04-30T15:20:29.649Z,18.40
2019-04-30T15:24:32.044Z,16.13
2019-04-30T15:28:34.496Z,16.73
2019-04-30T15:32:36.889Z,16.97
2019-04-30T15:36:39.536Z,16.97
2019-04-30T15:40:42.007Z,15.90
2019-04-30T15:44:45.926Z,17.57
2019-04-30T15:48:48.481Z,18.23
2019-04-30T15:52:51.194Z,16.73
2019-04-30T15:56:53.716Z,17.23
2019-04-30T16:00:56.205Z,17.67
2019-04-30T16:04:59.867Z,17.73
2019-04-30T16:09:02.557Z,18.23
2019-04-30T16:13:04.970Z,19.40
2019-04-30T16:17:07.831Z,18.73
2019-04-30T16:21:10.090Z,19.73
2019-04-30T16:25:12.890Z,17.60
2019-04-30T16:29:15.373Z,18.57
2019-04-30T16:33:19.349Z,18.80
2019-04-30T16:37:21.617Z,17.33
2019-04-30T16:41:31.536Z,18.17
2019-04-30T16:45:29.050Z,20.00
2019-04-30T16:49:31.680Z,20.80
2019-04-30T16:53:34.169Z,22.10
2019-04-30T16:57:36.833Z,20.07
2019-04-30T17:01:39.187Z,21.40
2019-04-30T17:05:41.681Z,19.20
2019-04-30T17:09:44.206Z,20.73
2019-04-30T17:13:46.641Z,21.10
2019-04-30T17:17:49.742Z,21.60
2019-04-30T17:21:52.301Z,20.60
2019-04-30T17:25:54.770Z,22.23
2019-04-30T17:29:57.087Z,21.60
2019-04-30T17:33:59.575Z,22.20
2019-04-30T17:38:01.974Z,22.30
2019-04-30T17:42:04.440Z,22.33
2019-04-30T17:46:07.092Z,20.97
2019-04-30T17:50:09.338Z,22.70
2019-04-30T17:54:11.795Z,21.30
2019-04-30T17:58:14.137Z,21.23
2019-04-30T18:02:16.722Z,22.10
2019-04-30T18:06:19.426Z,20.47
2019-04-30T18:10:21.925Z,21.23
2019-04-30T18:14:24.485Z,20.70
2019-04-30T18:18:28.671Z,20.50
2019-04-30T18:22:31.032Z,23.37
2019-04-30T18:26:33.650Z,21.57
2019-04-30T18:30:36.093Z,24.40
2019-04-30T18:34:39.208Z,23.17
2019-04-30T18:38:41.553Z,23.47
2019-04-30T18:42:44.185Z,26.03
2019-04-30T18:46:46.667Z,28.10
2019-04-30T18:50:49.161Z,22.90
2019-04-30T18:54:51.553Z,23.97
2019-04-30T18:58:54.179Z,24.00
2019-04-30T19:02:58.529Z,21.07
2019-04-30T19:07:00.649Z,19.03
2019-04-30T19:11:03.111Z,18.60
2019-04-30T19:15:05.717Z,17.40
2019-04-30T19:19:09.427Z,17.40
2019-04-30T19:23:12.123Z,16.10
2019-04-30T19:27:14.668Z,16.77
2019-04-30T19:31:17.215Z,18.10
2019-04-30T19:35:19.895Z,17.53
2019-04-30T19:39:22.288Z,16.37
2019-04-30T19:43:24.993Z,16.43
2019-04-30T19:47:30.743Z,17.17
2019-04-30T19:51:31.236Z,16.80
2019-04-30T19:55:33.842Z,17.03
2019-04-30T19:59:36.184Z,17.17
2019-04-30T20:03:40.574Z,16.40
2019-04-30T20:07:42.530Z,16.07
2019-04-30T20:11:46.184Z,16.97
2019-04-30T20:15:49.380Z,15.57
2019-04-30T20:19:52.179Z,15.63
2019-04-30T20:23:54.632Z,16.90
2019-04-30T20:27:57.161Z,15.63
2019-04-30T20:31:59.755Z,15.87
2019-04-30T20:36:02.278Z,15.33
2019-04-30T20:40:04.770Z,15.00
2019-04-30T20:44:08.816Z,15.97
2019-04-30T20:48:11.146Z,13.57
2019-04-30T20:52:13.629Z,14.23
2019-04-30T20:56:16.141Z,12.37
2019-04-30T21:00:18.784Z,12.80
2019-04-30T21:04:21.230Z,13.13
2019-04-30T21:08:23.741Z,12.70
2019-04-30T21:12:26.128Z,13.53
2019-04-30T21:16:28.838Z,12.77
2019-04-30T21:20:31.453Z,12.80
2019-04-30T21:24:33.895Z,12.03
2019-04-30T21:28:36.375Z,12.70
2019-04-30T21:32:38.984Z,12.27
2019-04-30T21:36:42.405Z,12.73
2019-04-30T21:40:44.871Z,12.43
2019-04-30T21:44:47.261Z,11.70
2019-04-30T21:48:49.798Z,10.53
2019-04-30T21:52:52.323Z,9.50
2019-04-30T21:56:54.796Z,7.90
2019-04-30T22:00:57.302Z,8.20
2019-04-30T22:04:59.740Z,7.90
2019-04-30T22:09:02.061Z,8.40
2019-04-30T22:13:04.747Z,8.27
2019-04-30T22:17:07.036Z,7.20
2019-04-30T22:21:09.614Z,7.40
2019-04-30T22:25:11.909Z,7.93
2019-04-30T22:29:14.549Z,7.83
2019-04-30T22:33:16.954Z,6.97
2019-04-30T22:37:19.718Z,6.83
2019-04-30T22:41:22.427Z,6.57
2019-04-30T22:45:25.145Z,7.23
2019-04-30T22:49:27.747Z,8.30
2019-04-30T22:53:30.322Z,7.07
2019-04-30T22:57:33.089Z,8.17
2019-04-30T23:01:35.513Z,8.03
2019-04-30T23:05:38.058Z,7.23
2019-04-30T23:09:40.724Z,7.60
2019-04-30T23:13:43.070Z,8.20
2019-04-30T23:17:45.668Z,8.43
2019-04-30T23:21:48.164Z,6.93
2019-04-30T23:25:50.698Z,7.43
2019-04-30T23:30:02.817Z,7.17
2019-04-30T23:33:57.085Z,6.80
2019-04-30T23:37:59.451Z,9.50
2019-04-30T23:42:02.020Z,7.40
2019-04-30T23:46:04.531Z,8.13
2019-04-30T23:50:07.107Z,7.80
2019-04-30T23:54:09.394Z,7.83
2019-04-30T23:58:11.918Z,8.80
